Time,TemperatureF,DewpointF,PressureIn,WindDirection,WindDirectionDegrees,WindSpeedMPH,WindSpeedGustMPH,Humidity,HourlyPrecipIn,Conditions,Clouds,dailyrainin,SoftwareType,DateUTC
2013-11-21 00:02:00,44.3,42.4,27.20,West,270,0.0,0.7,93,0.00,,,0.00,WUHU216HW,2013-11-21 08:02:00,
2013-11-21 00:07:00,44.1,42.2,27.20,West,270,0.4,0.7,93,0.00,,,0.00,WUHU216HW,2013-11-21 08:07:00,
2013-11-21 00:12:00,44.1,42.2,27.20,West,270,1.1,1.1,93,0.00,,,0.00,WUHU216HW,2013-11-21 08:12:00,
2013-11-21 00:17:00,44.1,41.9,27.20,West,270,0.4,1.1,92,0.00,,,0.00,WUHU216HW,2013-11-21 08:17:00,
2013-11-21 00:22:00,43.9,41.8,27.20,WSW,248,1.1,1.3,92,0.00,,,0.00,WUHU216HW,2013-11-21 08:22:00,
2013-11-21 00:27:00,43.9,41.8,27.20,NW,315,0.7,1.3,92,0.00,,,0.00,WUHU216HW,2013-11-21 08:27:00,
2013-11-21 00:32:00,43.7,41.6,27.20,West,270,0.7,1.8,92,0.00,,,0.00,WUHU216HW,2013-11-21 08:32:00,
2013-11-21 00:37:00,43.7,41.6,27.20,WNW,293,0.2,1.8,92,0.00,,,0.00,WUHU216HW,2013-11-21 08:37:00,
2013-11-21 00:42:00,43.6,41.4,27.20,WSW,248,0.0,1.1,92,0.00,,,0.00,WUHU216HW,2013-11-21 08:42:00,
2013-11-21 00:47:00,43.6,41.7,27.20,WSW,248,0.0,1.1,93,0.00,,,0.00,WUHU216HW,2013-11-21 08:47:00,
2013-11-21 00:52:00,43.6,41.7,27.20,South,180,0.4,0.7,93,0.00,,,0.00,WUHU216HW,2013-11-21 08:52:00,
2013-11-21 00:57:00,43.6,41.7,27.20,WSW,248,0.0,0.7,93,0.00,,,0.00,WUHU216HW,2013-11-21 08:57:00,
2013-11-21 01:02:00,43.4,41.5,27.20,WNW,293,0.0,0.4,93,0.00,,,0.00,WUHU216HW,2013-11-21 09:02:00,
2013-11-21 01:07:00,43.2,41.3,27.20,NE,45,0.0,0.0,93,0.00,,,0.00,WUHU216HW,2013-11-21 09:07:00,
2013-11-21 01:10:00,43.2,41.3,27.20,North,0,0.2,0.2,93,0.00,,,0.00,WUHU216HW,2013-11-21 09:10:00,
2013-11-21 01:12:00,43.2,41.3,27.20,North,0,0.2,0.2,93,0.00,,,0.00,WUHU216HW,2013-11-21 09:12:00,
2013-11-21 01:17:00,43.2,41.3,27.20,North,0,0.2,0.2,93,0.00,,,0.00,WUHU216HW,2013-11-21 09:17:00,
2013-11-21 01:40:00,42.7,40.5,27.20,WNW,293,0.0,0.0,92,0.00,,,0.00,WUHU216HW,2013-11-21 09:40:00,
2013-11-21 01:45:00,42.8,40.7,27.20,NNW,338,0.0,0.2,92,0.00,,,0.00,WUHU216HW,2013-11-21 09:45:00,
2013-11-21 01:50:00,42.8,40.7,27.20,WNW,293,0.4,0.9,92,0.00,,,0.00,WUHU216HW,2013-11-21 09:50:00,
2013-11-21 01:55:00,42.8,40.4,27.21,NW,315,0.4,0.9,91,0.00,,,0.00,WUHU216HW,2013-11-21 09:55:00,
2013-11-21 02:00:00,42.8,40.4,27.21,NW,315,0.7,1.1,91,0.00,,,0.00,WUHU216HW,2013-11-21 10:00:00,
2013-11-21 02:05:00,42.8,40.1,27.20,West,270,1.8,1.8,90,0.00,,,0.00,WUHU216HW,2013-11-21 10:05:00,
2013-11-21 02:10:00,42.8,39.9,27.21,WNW,293,1.1,1.8,89,0.00,,,0.00,WUHU216HW,2013-11-21 10:10:00,
2013-11-21 02:15:00,42.8,39.9,27.21,WNW,293,0.0,1.3,89,0.00,,,0.00,WUHU216HW,2013-11-21 10:15:00,
2013-11-21 02:20:00,42.8,39.9,27.21,WNW,293,0.0,1.3,89,0.00,,,0.00,WUHU216HW,2013-11-21 10:20:00,
2013-11-21 02:25:00,42.7,40.0,27.21,West,270,0.4,1.1,90,0.00,,,0.00,WUHU216HW,2013-11-21 10:25:00,
2013-11-21 02:30:00,42.7,40.0,27.21,NW,315,0.0,0.9,90,0.00,,,0.00,WUHU216HW,2013-11-21 10:30:00,
2013-11-21 02:35:00,42.5,39.8,27.22,NNW,338,0.0,1.1,90,0.00,,,0.00,WUHU216HW,2013-11-21 10:35:00,
2013-11-21 02:40:00,42.5,39.5,27.22,NW,315,0.0,2.0,89,0.00,,,0.00,WUHU216HW,2013-11-21 10:40:00,
2013-11-21 02:45:00,42.5,39.8,27.22,NW,315,0.9,2.0,90,0.00,,,0.00,WUHU216HW,2013-11-21 10:45:00,
2013-11-21 02:50:00,42.3,39.9,27.22,West,270,1.3,1.6,91,0.00,,,0.00,WUHU216HW,2013-11-21 10:50:00,
2013-11-21 02:55:00,42.1,39.7,27.22,NW,315,0.9,1.3,91,0.00,,,0.00,WUHU216HW,2013-11-21 10:55:00,
2013-11-21 03:00:00,42.1,39.4,27.22,NW,315,0.0,2.9,90,0.00,,,0.00,WUHU216HW,2013-11-21 11:00:00,
2013-11-21 03:05:00,42.5,38.3,27.22,NW,315,1.1,2.9,85,0.00,,,0.00,WUHU216HW,2013-11-21 11:05:00,
2013-11-21 03:10:00,43.2,38.7,27.22,NW,315,0.7,2.0,84,0.00,,,0.00,WUHU216HW,2013-11-21 11:10:00,
2013-11-21 03:15:00,43.6,38.7,27.22,West,270,0.9,2.5,83,0.00,,,0.00,WUHU216HW,2013-11-21 11:15:00,
2013-11-21 03:20:00,43.6,38.1,27.22,West,270,0.7,2.5,81,0.00,,,0.00,WUHU216HW,2013-11-21 11:20:00,
2013-11-21 03:25:00,43.7,38.9,27.22,North,0,0.2,1.1,83,0.00,,,0.00,WUHU216HW,2013-11-21 11:25:00,
2013-11-21 03:30:00,43.9,37.2,27.22,WNW,293,1.8,2.9,77,0.00,,,0.00,WUHU216HW,2013-11-21 11:30:00,
2013-11-21 03:35:00,44.3,37.8,27.22,West,270,1.3,2.9,78,0.00,,,0.00,WUHU216HW,2013-11-21 11:35:00,
2013-11-21 03:40:00,44.3,36.8,27.23,WNW,293,2.5,2.5,75,0.00,,,0.00,WUHU216HW,2013-11-21 11:40:00,
2013-11-21 03:45:00,44.5,37.4,27.22,WSW,248,0.4,2.5,76,0.00,,,0.00,WUHU216HW,2013-11-21 11:45:00,
2013-11-21 03:50:00,44.5,36.6,27.22,NW,315,0.9,4.7,74,0.00,,,0.00,WUHU216HW,2013-11-21 11:50:00,
2013-11-21 03:55:00,44.6,36.8,27.22,WSW,248,0.9,4.7,74,0.00,,,0.00,WUHU216HW,2013-11-21 11:55:00,
2013-11-21 04:00:00,44.5,36.4,27.22,West,270,5.4,5.4,73,0.00,,,0.00,WUHU216HW,2013-11-21 12:00:00,
2013-11-21 04:05:00,44.6,35.8,27.22,SSW,203,2.2,5.4,71,0.00,,,0.00,WUHU216HW,2013-11-21 12:05:00,
2013-11-21 04:10:00,44.8,36.0,27.22,WNW,293,2.5,4.9,71,0.00,,,0.00,WUHU216HW,2013-11-21 12:10:00,
2013-11-21 04:15:00,44.8,35.3,27.22,West,270,5.6,5.6,69,0.00,,,0.00,WUHU216HW,2013-11-21 12:15:00,
2013-11-21 04:20:00,44.8,35.3,27.23,North,0,1.8,5.6,69,0.00,,,0.00,WUHU216HW,2013-11-21 12:20:00,
2013-11-21 04:25:00,44.8,35.3,27.23,NW,315,1.8,3.1,69,0.00,,,0.00,WUHU216HW,2013-11-21 12:25:00,
2013-11-21 04:30:00,44.8,34.1,27.23,WSW,248,4.3,5.6,66,0.00,,,0.00,WUHU216HW,2013-11-21 12:30:00,
2013-11-21 04:35:00,45.0,33.9,27.22,WSW,248,1.3,5.6,65,0.00,,,0.00,WUHU216HW,2013-11-21 12:35:00,
2013-11-21 04:40:00,44.8,34.5,27.23,WSW,248,1.1,3.4,67,0.00,,,0.00,WUHU216HW,2013-11-21 12:40:00,
2013-11-21 04:45:00,44.8,33.8,27.23,West,270,2.5,6.9,65,0.00,,,0.00,WUHU216HW,2013-11-21 12:45:00,
2013-11-21 04:50:00,45.0,33.6,27.23,NW,315,2.0,6.9,64,0.00,,,0.00,WUHU216HW,2013-11-21 12:50:00,
2013-11-21 04:55:00,45.0,33.9,27.23,WSW,248,2.0,2.2,65,0.00,,,0.00,WUHU216HW,2013-11-21 12:55:00,
2013-11-21 05:00:00,44.8,33.8,27.24,WNW,293,1.8,2.0,65,0.00,,,0.00,WUHU216HW,2013-11-21 13:00:00,
2013-11-21 05:05:00,44.8,32.9,27.24,West,270,2.7,2.7,63,0.00,,,0.00,WUHU216HW,2013-11-21 13:05:00,
2013-11-21 05:10:00,45.0,33.1,27.24,WSW,248,0.9,2.9,63,0.00,,,0.00,WUHU216HW,2013-11-21 13:10:00,
2013-11-21 05:15:00,45.2,33.0,27.24,WSW,248,0.2,2.9,62,0.00,,,0.00,WUHU216HW,2013-11-21 13:15:00,
2013-11-21 05:20:00,45.4,33.5,27.24,NW,315,1.6,2.5,63,0.00,,,0.00,WUHU216HW,2013-11-21 13:20:00,
2013-11-21 05:25:00,45.2,33.7,27.24,WNW,293,0.4,2.0,64,0.00,,,0.00,WUHU216HW,2013-11-21 13:25:00,
2013-11-21 05:30:00,45.0,32.8,27.24,West,270,0.7,2.9,62,0.00,,,0.00,WUHU216HW,2013-11-21 13:30:00,
2013-11-21 05:35:00,44.8,33.8,27.24,WNW,293,0.0,2.9,65,0.00,,,0.00,WUHU216HW,2013-11-21 13:35:00,
2013-11-21 05:40:00,44.6,31.7,27.25,WSW,248,0.7,1.6,60,0.00,,,0.00,WUHU216HW,2013-11-21 13:40:00,
2013-11-21 05:45:00,45.0,30.7,27.25,NW,315,2.2,2.2,57,0.00,,,0.00,WUHU216HW,2013-11-21 13:45:00,
2013-11-21 05:50:00,45.4,32.3,27.25,WNW,293,0.4,2.2,60,0.00,,,0.00,WUHU216HW,2013-11-21 13:50:00,
2013-11-21 05:55:00,45.2,31.7,27.25,NNW,338,0.7,1.6,59,0.00,,,0.00,WUHU216HW,2013-11-21 13:55:00,
2013-11-21 06:00:00,45.2,32.6,27.25,NW,315,0.7,2.2,61,0.00,,,0.00,WUHU216HW,2013-11-21 14:00:00,
2013-11-21 06:05:00,45.0,34.3,27.26,ENE,68,1.1,2.2,66,0.00,,,0.00,WUHU216HW,2013-11-21 14:05:00,
2013-11-21 06:10:00,44.3,32.5,27.25,SSW,203,0.0,4.5,63,0.00,,,0.00,WUHU216HW,2013-11-21 14:10:00,
2013-11-21 06:15:00,43.9,28.3,27.25,NNW,338,3.8,4.5,54,0.00,,,0.00,WUHU216HW,2013-11-21 14:15:00,
2013-11-21 06:20:00,44.5,28.8,27.26,West,270,2.2,3.8,54,0.00,,,0.00,WUHU216HW,2013-11-21 14:20:00,
2013-11-21 06:25:00,44.8,27.4,27.26,NW,315,2.2,3.6,50,0.00,,,0.00,WUHU216HW,2013-11-21 14:25:00,
2013-11-21 06:30:00,45.4,25.1,27.25,SW,225,1.1,3.6,45,0.00,,,0.00,WUHU216HW,2013-11-21 14:30:00,
2013-11-21 06:35:00,45.2,26.0,27.25,WNW,293,1.8,3.6,47,0.00,,,0.00,WUHU216HW,2013-11-21 14:35:00,
2013-11-21 06:40:00,45.4,25.1,27.26,NW,315,3.6,3.6,45,0.00,,,0.00,WUHU216HW,2013-11-21 14:40:00,
2013-11-21 06:45:00,45.7,23.9,27.26,SE,135,2.5,5.4,42,0.00,,,0.00,WUHU216HW,2013-11-21 14:45:00,
2013-11-21 06:50:00,46.3,23.2,27.27,West,270,1.1,5.4,40,0.00,,,0.00,WUHU216HW,2013-11-21 14:50:00,
2013-11-21 06:55:00,46.1,22.4,27.27,NW,315,2.7,8.9,39,0.00,,,0.00,WUHU216HW,2013-11-21 14:55:00,
2013-11-21 07:00:00,46.4,22.8,27.28,SSW,203,1.1,8.9,39,0.00,,,0.00,WUHU216HW,2013-11-21 15:00:00,
2013-11-21 07:05:00,46.1,21.8,27.27,North,0,2.5,4.5,38,0.00,,,0.00,WUHU216HW,2013-11-21 15:05:00,
2013-11-21 07:10:00,45.7,21.4,27.28,SE,135,2.5,4.5,38,0.00,,,0.00,WUHU216HW,2013-11-21 15:10:00,
2013-11-21 07:15:00,45.4,21.1,27.28,South,180,2.5,4.5,38,0.00,,,0.00,WUHU216HW,2013-11-21 15:15:00,
2013-11-21 07:20:00,45.2,21.6,27.28,WSW,248,1.6,4.5,39,0.00,,,0.00,WUHU216HW,2013-11-21 15:20:00,
2013-11-21 07:25:00,45.0,19.4,27.29,SE,135,2.0,4.5,36,0.00,,,0.00,WUHU216HW,2013-11-21 15:25:00,
2013-11-21 07:30:00,45.5,18.6,27.29,South,180,0.4,4.5,34,0.00,,,0.00,WUHU216HW,2013-11-21 15:30:00,
2013-11-21 07:35:00,45.5,19.9,27.29,West,270,1.1,3.4,36,0.00,,,0.00,WUHU216HW,2013-11-21 15:35:00,
2013-11-21 07:40:00,45.4,18.5,27.28,NW,315,2.5,2.5,34,0.00,,,0.00,WUHU216HW,2013-11-21 15:40:00,
2013-11-21 07:45:00,45.0,17.5,27.29,NNW,338,4.7,4.7,33,0.00,,,0.00,WUHU216HW,2013-11-21 15:45:00,
2013-11-21 07:50:00,44.8,19.3,27.29,NW,315,1.1,4.7,36,0.00,,,0.00,WUHU216HW,2013-11-21 15:50:00,
2013-11-21 07:55:00,44.6,17.1,27.29,NW,315,3.4,3.4,33,0.00,,,0.00,WUHU216HW,2013-11-21 15:55:00,
2013-11-21 08:00:00,45.2,20.3,27.30,SE,135,1.6,3.4,37,0.00,,,0.00,WUHU216HW,2013-11-21 16:00:00,
2013-11-21 08:05:00,45.2,18.3,27.30,West,270,3.1,4.3,34,0.00,,,0.00,WUHU216HW,2013-11-21 16:05:00,
2013-11-21 08:10:00,45.7,17.5,27.30,NW,315,2.7,5.8,32,0.00,,,0.00,WUHU216HW,2013-11-21 16:10:00,
2013-11-21 08:15:00,45.7,18.1,27.30,NW,315,5.1,5.8,33,0.00,,,0.00,WUHU216HW,2013-11-21 16:15:00,
2013-11-21 08:20:00,46.1,17.7,27.29,ESE,113,3.4,6.7,32,0.00,,,0.00,WUHU216HW,2013-11-21 16:20:00,
2013-11-21 08:25:00,46.1,17.1,27.30,NW,315,2.9,6.7,31,0.00,,,0.00,WUHU216HW,2013-11-21 16:25:00,
2013-11-21 08:30:00,45.7,19.5,27.29,NNE,23,4.0,4.0,35,0.00,,,0.00,WUHU216HW,2013-11-21 16:30:00,
2013-11-21 08:35:00,45.7,16.1,27.28,SW,225,3.4,4.7,30,0.00,,,0.00,WUHU216HW,2013-11-21 16:35:00,
2013-11-21 08:40:00,46.4,14.0,27.29,WNW,293,3.8,5.1,27,0.00,,,0.00,WUHU216HW,2013-11-21 16:40:00,
2013-11-21 08:45:00,47.0,15.4,27.29,NW,315,2.5,8.5,28,0.00,,,0.00,WUHU216HW,2013-11-21 16:45:00,
2013-11-21 08:50:00,47.0,16.3,27.31,West,270,4.0,8.5,29,0.00,,,0.00,WUHU216HW,2013-11-21 16:50:00,
2013-11-21 08:55:00,46.8,19.1,27.31,NNW,338,2.0,6.5,33,0.00,,,0.00,WUHU216HW,2013-11-21 16:55:00,
2013-11-21 09:00:00,47.0,23.2,27.31,NNW,338,1.6,4.9,39,0.00,,,0.00,WUHU216HW,2013-11-21 17:00:00,
2013-11-21 09:05:00,46.8,19.1,27.31,WNW,293,0.4,3.4,33,0.00,,,0.00,WUHU216HW,2013-11-21 17:05:00,
2013-11-21 09:10:00,47.2,16.5,27.31,WSW,248,1.3,6.5,29,0.00,,,0.00,WUHU216HW,2013-11-21 17:10:00,
2013-11-21 09:15:00,47.2,19.4,27.31,South,180,2.9,6.5,33,0.00,,,0.00,WUHU216HW,2013-11-21 17:15:00,
2013-11-21 09:20:00,47.5,16.7,27.31,SW,225,3.8,4.7,29,0.00,,,0.00,WUHU216HW,2013-11-21 17:20:00,
2013-11-21 09:25:00,47.9,22.1,27.32,West,270,1.8,3.8,36,0.00,,,0.00,WUHU216HW,2013-11-21 17:25:00,
2013-11-21 09:30:00,47.9,14.3,27.31,WNW,293,4.3,4.3,26,0.00,,,0.00,WUHU216HW,2013-11-21 17:30:00,
2013-11-21 09:35:00,48.6,16.7,27.31,WNW,293,3.6,4.3,28,0.00,,,0.00,WUHU216HW,2013-11-21 17:35:00,
2013-11-21 09:40:00,48.6,18.6,27.32,SW,225,2.7,4.5,30,0.00,,,0.00,WUHU216HW,2013-11-21 17:40:00,
2013-11-21 09:45:00,48.4,21.2,27.31,NW,315,0.2,4.5,34,0.00,,,0.00,WUHU216HW,2013-11-21 17:45:00,
2013-11-21 09:50:00,48.2,14.6,27.32,NW,315,4.5,6.3,26,0.00,,,0.00,WUHU216HW,2013-11-21 17:50:00,
2013-11-21 09:55:00,48.6,17.7,27.32,West,270,1.3,6.3,29,0.00,,,0.00,WUHU216HW,2013-11-21 17:55:00,
2013-11-21 10:00:00,48.6,18.6,27.32,WSW,248,3.4,4.9,30,0.00,,,0.00,WUHU216HW,2013-11-21 18:00:00,
2013-11-21 10:05:00,48.6,19.4,27.32,South,180,1.8,3.4,31,0.00,,,0.00,WUHU216HW,2013-11-21 18:05:00,
2013-11-21 10:10:00,48.6,19.4,27.32,NW,315,1.1,3.4,31,0.00,,,0.00,WUHU216HW,2013-11-21 18:10:00,
2013-11-21 10:15:00,48.4,17.6,27.32,North,0,2.9,3.4,29,0.00,,,0.00,WUHU216HW,2013-11-21 18:15:00,
2013-11-21 10:20:00,48.6,14.0,27.33,NW,315,1.3,4.9,25,0.00,,,0.00,WUHU216HW,2013-11-21 18:20:00,
2013-11-21 10:25:00,49.0,21.0,27.32,ESE,113,1.8,4.9,33,0.00,,,0.00,WUHU216HW,2013-11-21 18:25:00,
2013-11-21 10:30:00,49.0,20.3,27.33,North,0,0.4,2.5,32,0.00,,,0.00,WUHU216HW,2013-11-21 18:30:00,
2013-11-21 10:35:00,49.3,20.6,27.33,ESE,113,0.4,2.7,32,0.00,,,0.00,WUHU216HW,2013-11-21 18:35:00,
2013-11-21 10:40:00,49.1,17.2,27.33,WNW,293,3.4,3.4,28,0.00,,,0.00,WUHU216HW,2013-11-21 18:40:00,
2013-11-21 10:45:00,49.1,24.5,27.33,SE,135,1.3,3.4,38,0.00,,,0.00,WUHU216HW,2013-11-21 18:45:00,
2013-11-21 10:50:00,48.6,16.7,27.33,SSW,203,1.8,1.8,28,0.00,,,0.00,WUHU216HW,2013-11-21 18:50:00,
2013-11-21 10:55:00,49.0,20.3,27.32,WSW,248,1.3,1.8,32,0.00,,,0.00,WUHU216HW,2013-11-21 18:55:00,
2013-11-21 11:00:00,49.1,19.1,27.33,SW,225,1.8,2.5,30,0.00,,,0.00,WUHU216HW,2013-11-21 19:00:00,
2013-11-21 11:05:00,49.3,19.3,27.33,WNW,293,2.0,2.5,30,0.00,,,0.00,WUHU216HW,2013-11-21 19:05:00,
2013-11-21 11:10:00,49.7,22.2,27.32,SE,135,1.1,3.4,34,0.00,,,0.00,WUHU216HW,2013-11-21 19:10:00,
2013-11-21 11:15:00,50.0,24.6,27.32,SSE,158,0.2,3.4,37,0.00,,,0.00,WUHU216HW,2013-11-21 19:15:00,
2013-11-21 11:20:00,50.4,21.5,27.32,SE,135,3.4,3.4,32,0.00,,,0.00,WUHU216HW,2013-11-21 19:20:00,
2013-11-21 11:25:00,50.8,18.6,27.32,NW,315,0.2,4.5,28,0.00,,,0.00,WUHU216HW,2013-11-21 19:25:00,
2013-11-21 11:30:00,51.5,20.2,27.32,NW,315,0.4,4.5,29,0.00,,,0.00,WUHU216HW,2013-11-21 19:30:00,
2013-11-21 11:35:00,52.0,21.6,27.31,SE,135,1.3,3.1,30,0.00,,,0.00,WUHU216HW,2013-11-21 19:35:00,
2013-11-21 11:40:00,51.7,16.6,27.31,WSW,248,0.9,3.1,25,0.00,,,0.00,WUHU216HW,2013-11-21 19:40:00,
2013-11-21 11:45:00,52.2,16.1,27.31,WSW,248,2.0,2.5,24,0.00,,,0.00,WUHU216HW,2013-11-21 19:45:00,
2013-11-21 11:50:00,53.5,18.1,27.31,WNW,293,3.1,3.4,25,0.00,,,0.00,WUHU216HW,2013-11-21 19:50:00,
2013-11-21 11:55:00,54.2,24.1,27.31,SSW,203,3.6,4.7,31,0.00,,,0.00,WUHU216HW,2013-11-21 19:55:00,
2013-11-21 12:00:00,53.8,18.5,27.31,SSE,158,1.1,6.9,25,0.00,,,0.00,WUHU216HW,2013-11-21 20:00:00,
2013-11-21 12:05:00,52.9,14.9,27.31,WSW,248,2.9,6.9,22,0.00,,,0.00,WUHU216HW,2013-11-21 20:05:00,
2013-11-21 12:10:00,53.1,17.8,27.32,WNW,293,3.4,3.6,25,0.00,,,0.00,WUHU216HW,2013-11-21 20:10:00,
2013-11-21 12:15:00,52.9,17.6,27.31,SSW,203,4.0,6.9,25,0.00,,,0.00,WUHU216HW,2013-11-21 20:15:00,
2013-11-21 12:20:00,52.4,13.4,27.31,NNW,338,1.8,6.9,21,0.00,,,0.00,WUHU216HW,2013-11-21 20:20:00,
2013-11-21 12:25:00,51.7,12.9,27.31,NW,315,3.8,7.4,21,0.00,,,0.00,WUHU216HW,2013-11-21 20:25:00,
2013-11-21 12:30:00,52.0,16.9,27.31,West,270,1.8,7.4,25,0.00,,,0.00,WUHU216HW,2013-11-21 20:30:00,
2013-11-21 12:35:00,53.6,17.3,27.31,WSW,248,1.3,2.2,24,0.00,,,0.00,WUHU216HW,2013-11-21 20:35:00,
2013-11-21 12:40:00,53.6,14.5,27.31,SW,225,2.2,3.1,21,0.00,,,0.00,WUHU216HW,2013-11-21 20:40:00,
2013-11-21 12:45:00,52.4,14.4,27.31,SW,225,1.1,3.4,22,0.00,,,0.00,WUHU216HW,2013-11-21 20:45:00,
2013-11-21 12:50:00,51.8,18.6,27.32,North,0,0.0,3.4,27,0.00,,,0.00,WUHU216HW,2013-11-21 20:50:00,
2013-11-21 12:55:00,51.7,15.7,27.31,NW,315,3.4,3.4,24,0.00,,,0.00,WUHU216HW,2013-11-21 20:55:00,
2013-11-21 13:00:00,51.3,14.4,27.31,WNW,293,2.5,3.4,23,0.00,,,0.00,WUHU216HW,2013-11-21 21:00:00,
2013-11-21 13:05:00,51.5,13.7,27.32,WSW,248,1.1,2.5,22,0.00,,,0.00,WUHU216HW,2013-11-21 21:05:00,
2013-11-21 13:10:00,51.7,13.8,27.31,NW,315,3.8,3.8,22,0.00,,,0.00,WUHU216HW,2013-11-21 21:10:00,
2013-11-21 13:15:00,51.5,19.3,27.31,SE,135,4.3,4.3,28,0.00,,,0.00,WUHU216HW,2013-11-21 21:15:00,
2013-11-21 13:20:00,51.1,18.9,27.31,West,270,1.6,4.3,28,0.00,,,0.00,WUHU216HW,2013-11-21 21:20:00,
2013-11-21 13:25:00,50.8,14.0,27.32,SW,225,6.3,6.3,23,0.00,,,0.00,WUHU216HW,2013-11-21 21:25:00,
2013-11-21 13:30:00,50.6,14.8,27.31,NW,315,1.8,6.3,24,0.00,,,0.00,WUHU216HW,2013-11-21 21:30:00,
2013-11-21 13:35:00,50.6,14.8,27.31,NW,315,3.1,4.3,24,0.00,,,0.00,WUHU216HW,2013-11-21 21:35:00,
2013-11-21 13:40:00,50.4,14.6,27.31,NW,315,4.3,5.8,24,0.00,,,0.00,WUHU216HW,2013-11-21 21:40:00,
2013-11-21 13:45:00,50.4,15.5,27.32,West,270,3.4,5.8,25,0.00,,,0.00,WUHU216HW,2013-11-21 21:45:00,
2013-11-21 13:50:00,50.2,15.4,27.32,WSW,248,1.6,5.6,25,0.00,,,0.00,WUHU216HW,2013-11-21 21:50:00,
2013-11-21 13:55:00,50.0,18.0,27.32,ESE,113,1.1,6.9,28,0.00,,,0.00,WUHU216HW,2013-11-21 21:55:00,
2013-11-21 14:00:00,50.2,20.6,27.32,NW,315,0.9,6.9,31,0.00,,,0.00,WUHU216HW,2013-11-21 22:00:00,
2013-11-21 14:05:00,50.0,19.8,27.32,WNW,293,1.3,3.8,30,0.00,,,0.00,WUHU216HW,2013-11-21 22:05:00,
2013-11-21 14:10:00,50.0,18.0,27.33,WNW,293,3.4,4.3,28,0.00,,,0.00,WUHU216HW,2013-11-21 22:10:00,
2013-11-21 14:15:00,50.0,19.8,27.32,SSW,203,1.8,4.7,30,0.00,,,0.00,WUHU216HW,2013-11-21 22:15:00,
2013-11-21 14:20:00,49.9,17.8,27.32,WNW,293,2.9,8.7,28,0.00,,,0.00,WUHU216HW,2013-11-21 22:20:00,
2013-11-21 14:25:00,50.0,18.0,27.33,WNW,293,1.8,8.7,28,0.00,,,0.00,WUHU216HW,2013-11-21 22:25:00,
2013-11-21 14:30:00,50.0,18.9,27.33,NNW,338,2.5,9.8,29,0.00,,,0.00,WUHU216HW,2013-11-21 22:30:00,
2013-11-21 14:35:00,50.0,18.9,27.33,NNW,338,3.8,9.8,29,0.00,,,0.00,WUHU216HW,2013-11-21 22:35:00,
2013-11-21 14:40:00,50.0,20.5,27.33,SSE,158,0.4,7.2,31,0.00,,,0.00,WUHU216HW,2013-11-21 22:40:00,
2013-11-21 14:45:00,49.7,19.5,27.33,South,180,4.0,7.2,30,0.00,,,0.00,WUHU216HW,2013-11-21 22:45:00,
2013-11-21 14:50:00,49.7,18.6,27.33,NW,315,5.4,5.4,29,0.00,,,0.00,WUHU216HW,2013-11-21 22:50:00,
2013-11-21 14:55:00,49.9,19.6,27.33,West,270,1.1,5.4,30,0.00,,,0.00,WUHU216HW,2013-11-21 22:55:00,
2013-11-21 15:00:00,49.7,18.6,27.34,West,270,2.0,4.7,29,0.00,,,0.00,WUHU216HW,2013-11-21 23:00:00,
2013-11-21 15:05:00,49.7,20.2,27.35,WNW,293,1.8,3.4,31,0.00,,,0.00,WUHU216HW,2013-11-21 23:05:00,
2013-11-21 15:10:00,49.5,20.1,27.33,WNW,293,1.8,3.6,31,0.00,,,0.00,WUHU216HW,2013-11-21 23:10:00,
2013-11-21 15:15:00,49.3,20.6,27.34,West,270,1.8,3.6,32,0.00,,,0.00,WUHU216HW,2013-11-21 23:15:00,
2013-11-21 15:20:00,49.3,18.3,27.34,WSW,248,1.8,4.0,29,0.00,,,0.00,WUHU216HW,2013-11-21 23:20:00,
2013-11-21 15:25:00,49.3,19.3,27.35,NNE,23,0.4,5.4,30,0.00,,,0.00,WUHU216HW,2013-11-21 23:25:00,
2013-11-21 15:30:00,49.3,20.6,27.35,NW,315,2.0,5.4,32,0.00,,,0.00,WUHU216HW,2013-11-21 23:30:00,
2013-11-21 15:35:00,49.1,19.7,27.35,WSW,248,1.6,6.5,31,0.00,,,0.00,WUHU216HW,2013-11-21 23:35:00,
2013-11-21 15:40:00,49.0,19.6,27.35,NW,315,2.2,6.5,31,0.00,,,0.00,WUHU216HW,2013-11-21 23:40:00,
2013-11-21 15:45:00,49.3,17.4,27.35,North,0,4.0,7.2,28,0.00,,,0.00,WUHU216HW,2013-11-21 23:45:00,
2013-11-21 15:50:00,49.3,19.3,27.35,NW,315,0.7,7.2,30,0.00,,,0.00,WUHU216HW,2013-11-21 23:50:00,
2013-11-21 15:55:00,49.1,20.4,27.35,South,180,1.1,4.9,32,0.00,,,0.00,WUHU216HW,2013-11-21 23:55:00,
2013-11-21 16:00:00,49.0,19.6,27.36,WNW,293,1.8,5.4,31,0.00,,,0.00,WUHU216HW,2013-11-22 00:00:00,
2013-11-21 16:05:00,48.8,19.4,27.36,NW,315,0.7,5.4,31,0.00,,,0.00,WUHU216HW,2013-11-22 00:05:00,
2013-11-21 16:10:00,48.6,19.4,27.36,NW,315,2.2,5.4,31,0.00,,,0.00,WUHU216HW,2013-11-22 00:10:00,
2013-11-21 16:15:00,48.6,20.0,27.36,WNW,293,4.0,5.6,32,0.00,,,0.00,WUHU216HW,2013-11-22 00:15:00,
2013-11-21 16:20:00,48.2,21.7,27.36,ESE,113,0.4,5.6,35,0.00,,,0.00,WUHU216HW,2013-11-22 00:20:00,
2013-11-21 16:25:00,48.1,19.5,27.35,NNW,338,2.9,3.4,32,0.00,,,0.00,WUHU216HW,2013-11-22 00:25:00,
2013-11-21 16:30:00,48.1,19.5,27.35,WNW,293,1.8,2.9,32,0.00,,,0.00,WUHU216HW,2013-11-22 00:30:00,
2013-11-21 16:35:00,47.9,20.1,27.35,NW,315,1.1,2.0,33,0.00,,,0.00,WUHU216HW,2013-11-22 00:35:00,
2013-11-21 16:40:00,47.9,22.1,27.35,NW,315,0.0,4.7,36,0.00,,,0.00,WUHU216HW,2013-11-22 00:40:00,
2013-11-21 16:45:00,47.3,20.3,27.35,WNW,293,0.4,4.7,34,0.00,,,0.00,WUHU216HW,2013-11-22 00:45:00,
2013-11-21 16:50:00,47.3,20.3,27.34,SSE,158,1.8,4.5,34,0.00,,,0.00,WUHU216HW,2013-11-22 00:50:00,
2013-11-21 16:55:00,47.5,23.7,27.36,ESE,113,0.4,4.5,39,0.00,,,0.00,WUHU216HW,2013-11-22 00:55:00,
2013-11-21 17:00:00,46.8,22.4,27.36,NNW,338,1.6,4.3,38,0.00,,,0.00,WUHU216HW,2013-11-22 01:00:00,
2013-11-21 17:05:00,47.2,21.4,27.36,West,270,1.8,4.3,36,0.00,,,0.00,WUHU216HW,2013-11-22 01:05:00,
2013-11-21 17:10:00,47.9,20.7,27.36,NW,315,1.6,3.4,34,0.00,,,0.00,WUHU216HW,2013-11-22 01:10:00,
2013-11-21 17:15:00,48.1,18.2,27.36,SSW,203,2.5,7.8,30,0.00,,,0.00,WUHU216HW,2013-11-22 01:15:00,
2013-11-21 17:20:00,48.2,19.7,27.36,West,270,1.3,7.8,32,0.00,,,0.00,WUHU216HW,2013-11-22 01:20:00,
2013-11-21 17:25:00,48.4,17.6,27.35,WSW,248,1.8,2.9,29,0.00,,,0.00,WUHU216HW,2013-11-22 01:25:00,
2013-11-21 17:30:00,48.6,18.6,27.35,West,270,1.1,4.0,30,0.00,,,0.00,WUHU216HW,2013-11-22 01:30:00,
2013-11-21 17:35:00,48.4,18.6,27.35,SE,135,1.6,4.7,30,0.00,,,0.00,WUHU216HW,2013-11-22 01:35:00,
2013-11-21 17:40:00,48.1,17.3,27.36,NW,315,2.5,4.7,29,0.00,,,0.00,WUHU216HW,2013-11-22 01:40:00,
2013-11-21 17:45:00,48.1,18.9,27.35,SW,225,1.8,4.3,31,0.00,,,0.00,WUHU216HW,2013-11-22 01:45:00,
2013-11-21 17:50:00,47.9,19.4,27.36,WSW,248,1.1,4.3,32,0.00,,,0.00,WUHU216HW,2013-11-22 01:50:00,
2013-11-21 17:55:00,47.7,17.9,27.36,North,0,2.5,3.4,30,0.00,,,0.00,WUHU216HW,2013-11-22 01:55:00,
2013-11-21 18:00:00,47.9,18.0,27.36,West,270,1.1,3.4,30,0.00,,,0.00,WUHU216HW,2013-11-22 02:00:00,
2013-11-21 18:05:00,47.7,19.9,27.36,SSE,158,0.0,2.9,33,0.00,,,0.00,WUHU216HW,2013-11-22 02:05:00,
2013-11-21 18:08:00,47.3,21.5,27.36,East,90,1.1,1.6,36,0.00,,,0.00,WUHU216HW,2013-11-22 02:08:00,
2013-11-21 18:09:00,47.3,21.5,27.36,East,90,1.1,1.6,36,0.00,,,0.00,WUHU216HW,2013-11-22 02:09:00,
2013-11-21 18:14:00,47.0,19.9,27.37,SW,225,0.9,4.7,34,0.00,,,0.00,WUHU216HW,2013-11-22 02:14:00,
2013-11-21 18:19:00,47.2,18.1,27.37,WSW,248,4.0,4.7,31,0.00,,,0.00,WUHU216HW,2013-11-22 02:19:00,
2013-11-21 18:24:00,47.3,18.2,27.36,NE,45,0.0,4.0,31,0.00,,,0.00,WUHU216HW,2013-11-22 02:24:00,
2013-11-21 18:29:00,47.2,18.1,27.37,SW,225,0.9,3.6,31,0.00,,,0.00,WUHU216HW,2013-11-22 02:29:00,
2013-11-21 18:34:00,46.6,18.9,27.36,East,90,0.4,1.3,33,0.00,,,0.00,WUHU216HW,2013-11-22 02:34:00,
2013-11-21 18:39:00,46.4,15.9,27.36,West,270,1.1,1.6,29,0.00,,,0.00,WUHU216HW,2013-11-22 02:39:00,
2013-11-21 18:44:00,46.8,17.7,27.36,WNW,293,2.9,3.1,31,0.00,,,0.00,WUHU216HW,2013-11-22 02:44:00,
2013-11-21 18:49:00,46.8,17.7,27.37,SE,135,2.9,3.1,31,0.00,,,0.00,WUHU216HW,2013-11-22 02:49:00,
2013-11-21 18:54:00,46.6,18.9,27.37,WNW,293,0.4,2.9,33,0.00,,,0.00,WUHU216HW,2013-11-22 02:54:00,
2013-11-21 18:59:00,46.1,18.5,27.37,West,270,0.9,2.7,33,0.00,,,0.00,WUHU216HW,2013-11-22 02:59:00,
2013-11-21 19:04:00,46.1,18.5,27.37,WNW,293,0.2,1.8,33,0.00,,,0.00,WUHU216HW,2013-11-22 03:04:00,
2013-11-21 19:09:00,45.9,19.6,27.37,WNW,293,3.1,3.1,35,0.00,,,0.00,WUHU216HW,2013-11-22 03:09:00,
2013-11-21 19:14:00,45.7,18.7,27.37,West,270,0.9,3.1,34,0.00,,,0.00,WUHU216HW,2013-11-22 03:14:00,
2013-11-21 19:19:00,45.2,20.3,27.38,NE,45,0.4,1.8,37,0.00,,,0.00,WUHU216HW,2013-11-22 03:19:00,
2013-11-21 19:24:00,44.5,21.6,27.37,NNW,338,4.9,4.9,40,0.00,,,0.00,WUHU216HW,2013-11-22 03:24:00,
2013-11-21 19:29:00,44.3,20.2,27.38,NW,315,0.9,4.9,38,0.00,,,0.00,WUHU216HW,2013-11-22 03:29:00,
2013-11-21 19:34:00,44.1,18.6,27.37,WNW,293,3.4,3.4,36,0.00,,,0.00,WUHU216HW,2013-11-22 03:34:00,
2013-11-21 19:39:00,44.5,20.3,27.37,NW,315,1.8,3.4,38,0.00,,,0.00,WUHU216HW,2013-11-22 03:39:00,
2013-11-21 19:44:00,44.3,21.4,27.37,SSE,158,0.4,2.5,40,0.00,,,0.00,WUHU216HW,2013-11-22 03:44:00,
2013-11-21 19:49:00,43.7,22.6,27.37,SSE,158,0.4,2.9,43,0.00,,,0.00,WUHU216HW,2013-11-22 03:49:00,
2013-11-21 19:54:00,43.2,22.2,27.37,West,270,1.1,2.9,43,0.00,,,0.00,WUHU216HW,2013-11-22 03:54:00,
2013-11-21 19:59:00,42.8,21.2,27.37,NW,315,1.1,2.0,42,0.00,,,0.00,WUHU216HW,2013-11-22 03:59:00,
2013-11-21 20:04:00,42.5,22.0,27.38,WSW,248,1.1,1.8,44,0.00,,,0.00,WUHU216HW,2013-11-22 04:04:00,
2013-11-21 20:09:00,42.1,23.2,27.38,East,90,1.8,1.8,47,0.00,,,0.00,WUHU216HW,2013-11-22 04:09:00,
2013-11-21 20:14:00,42.1,23.2,27.37,WNW,293,1.6,1.8,47,0.00,,,0.00,WUHU216HW,2013-11-22 04:14:00,
2013-11-21 20:19:00,41.9,23.0,27.37,SE,135,1.1,3.6,47,0.00,,,0.00,WUHU216HW,2013-11-22 04:19:00,
2013-11-21 20:24:00,41.9,24.1,27.38,WNW,293,1.6,3.6,49,0.00,,,0.00,WUHU216HW,2013-11-22 04:24:00,
2013-11-21 20:29:00,41.8,22.9,27.38,SW,225,0.7,1.8,47,0.00,,,0.00,WUHU216HW,2013-11-22 04:29:00,
2013-11-21 20:34:00,41.6,23.8,27.38,NW,315,0.9,1.6,49,0.00,,,0.00,WUHU216HW,2013-11-22 04:34:00,
2013-11-21 20:39:00,41.2,23.4,27.39,NW,315,2.5,2.5,49,0.00,,,0.00,WUHU216HW,2013-11-22 04:39:00,
2013-11-21 20:44:00,41.6,20.1,27.38,NW,315,0.4,3.4,42,0.00,,,0.00,WUHU216HW,2013-11-22 04:44:00,
2013-11-21 20:49:00,42.1,21.6,27.37,NW,315,0.4,3.4,44,0.00,,,0.00,WUHU216HW,2013-11-22 04:49:00,
2013-11-21 20:54:00,42.1,21.2,27.38,NW,315,0.9,1.1,43,0.00,,,0.00,WUHU216HW,2013-11-22 04:54:00,
2013-11-21 20:59:00,41.9,22.0,27.38,SE,135,0.4,1.8,45,0.00,,,0.00,WUHU216HW,2013-11-22 04:59:00,
2013-11-21 21:01:00,41.8,22.3,27.37,SSE,158,0.0,1.8,46,0.00,,,0.00,WUHU216HW,2013-11-22 05:01:00,
2013-11-21 21:02:00,41.8,22.9,27.37,SSE,158,0.0,1.8,47,0.00,,,0.00,WUHU216HW,2013-11-22 05:02:00,
2013-11-21 21:07:00,41.4,22.5,27.37,WSW,248,0.2,1.1,47,0.00,,,0.00,WUHU216HW,2013-11-22 05:07:00,
2013-11-21 21:12:00,41.0,21.7,27.37,NW,315,1.8,2.0,46,0.00,,,0.00,WUHU216HW,2013-11-22 05:12:00,
2013-11-21 21:17:00,40.7,21.9,27.38,NW,315,1.3,2.0,47,0.00,,,0.00,WUHU216HW,2013-11-22 05:17:00,
2013-11-21 21:21:00,40.7,22.4,27.38,SE,135,1.1,1.6,48,0.00,,,0.00,WUHU216HW,2013-11-22 05:21:00,
2013-11-21 21:26:00,40.7,20.8,27.38,WNW,293,1.1,2.5,45,0.00,,,0.00,WUHU216HW,2013-11-22 05:26:00,
2013-11-21 21:31:00,40.5,22.8,27.38,NW,315,3.8,3.8,49,0.00,,,0.00,WUHU216HW,2013-11-22 05:31:00,
2013-11-21 21:36:00,40.0,21.8,27.38,SE,135,0.7,3.8,48,0.00,,,0.00,WUHU216HW,2013-11-22 05:36:00,
2013-11-21 21:42:00,40.0,21.3,27.38,NW,315,0.0,2.5,47,0.00,,,0.00,WUHU216HW,2013-11-22 05:42:00,
2013-11-21 21:47:00,40.5,19.6,27.39,WNW,293,1.1,1.8,43,0.00,,,0.00,WUHU216HW,2013-11-22 05:47:00,
2013-11-21 21:51:00,41.0,19.6,27.38,NW,315,0.0,1.8,42,0.00,,,0.00,WUHU216HW,2013-11-22 05:51:00,
2013-11-21 21:57:00,41.2,19.7,27.39,NW,315,0.0,1.6,42,0.00,,,0.00,WUHU216HW,2013-11-22 05:57:00,
2013-11-21 22:01:00,41.0,18.5,27.38,WNW,293,1.3,1.6,40,0.00,,,0.00,WUHU216HW,2013-11-22 06:01:00,
2013-11-21 22:06:00,41.0,20.1,27.38,SE,135,1.1,2.2,43,0.00,,,0.00,WUHU216HW,2013-11-22 06:06:00,
2013-11-21 22:11:00,40.9,21.5,27.38,SSE,158,1.3,2.2,46,0.00,,,0.00,WUHU216HW,2013-11-22 06:11:00,
2013-11-21 22:16:00,40.7,21.3,27.39,SE,135,1.1,3.1,46,0.00,,,0.00,WUHU216HW,2013-11-22 06:16:00,
2013-11-21 22:21:00,40.7,20.8,27.38,NW,315,1.3,3.1,45,0.00,,,0.00,WUHU216HW,2013-11-22 06:21:00,
2013-11-21 22:26:00,40.7,19.8,27.37,SE,135,1.3,2.5,43,0.00,,,0.00,WUHU216HW,2013-11-22 06:26:00,
2013-11-21 22:31:00,40.5,21.2,27.39,SW,225,0.2,2.5,46,0.00,,,0.00,WUHU216HW,2013-11-22 06:31:00,
2013-11-21 22:36:00,40.7,19.3,27.38,SW,225,1.1,2.9,42,0.00,,,0.00,WUHU216HW,2013-11-22 06:36:00,
2013-11-21 22:41:00,40.9,21.0,27.38,WNW,293,0.0,2.9,45,0.00,,,0.00,WUHU216HW,2013-11-22 06:41:00,
2013-11-21 22:46:00,40.7,21.3,27.38,East,90,0.4,2.2,46,0.00,,,0.00,WUHU216HW,2013-11-22 06:46:00,
2013-11-21 22:51:00,40.5,18.1,27.39,WNW,293,2.5,3.4,40,0.00,,,0.00,WUHU216HW,2013-11-22 06:51:00,
2013-11-21 22:56:00,40.9,19.5,27.38,West,270,1.6,3.4,42,0.00,,,0.00,WUHU216HW,2013-11-22 06:56:00,
2013-11-21 23:01:00,41.0,20.6,27.39,NW,315,1.8,1.8,44,0.00,,,0.00,WUHU216HW,2013-11-22 07:01:00,
2013-11-21 23:06:00,41.0,20.6,27.38,SSE,158,0.4,3.4,44,0.00,,,0.00,WUHU216HW,2013-11-22 07:06:00,
2013-11-21 23:11:00,40.9,19.5,27.38,SW,225,1.8,3.4,42,0.00,,,0.00,WUHU216HW,2013-11-22 07:11:00,
2013-11-21 23:16:00,41.0,20.1,27.41,WSW,248,0.0,1.8,43,0.00,,,0.00,WUHU216HW,2013-11-22 07:16:00,
2013-11-21 23:21:00,41.2,18.7,27.39,South,180,1.3,2.9,40,0.00,,,0.00,WUHU216HW,2013-11-22 07:21:00,
2013-11-21 23:26:00,41.4,16.3,27.39,WNW,293,1.8,2.9,36,0.00,,,0.00,WUHU216HW,2013-11-22 07:26:00,
2013-11-21 23:31:00,41.6,18.4,27.40,West,270,0.0,2.0,39,0.00,,,0.00,WUHU216HW,2013-11-22 07:31:00,
2013-11-21 23:36:00,41.4,19.4,27.39,WSW,248,0.0,1.1,41,0.00,,,0.00,WUHU216HW,2013-11-22 07:36:00,
2013-11-21 23:41:00,41.4,17.6,27.39,ESE,113,0.4,1.8,38,0.00,,,0.00,WUHU216HW,2013-11-22 07:41:00,
2013-11-21 23:46:00,41.4,19.4,27.39,WSW,248,0.0,1.8,41,0.00,,,0.00,WUHU216HW,2013-11-22 07:46:00,
2013-11-21 23:51:00,40.9,21.0,27.39,SE,135,2.5,2.5,45,0.00,,,0.00,WUHU216HW,2013-11-22 07:51:00,
2013-11-21 23:56:00,40.5,21.7,27.39,SE,135,0.2,2.5,47,0.00,,,0.00,WUHU216HW,2013-11-22 07:56:00,